sensor_id;sensor_type;location;lat;lon;timestamp;P1;durP1;ratioP1;P2;durP2;ratioP2
48241;SDS011;34041;51.812;4.622;2023-03-01T00:01:48;5.28;;;4.78;;
48241;SDS011;34041;51.812;4.622;2023-03-01T00:04:48;5.43;;;4.93;;
48241;SDS011;34041;51.812;4.622;2023-03-01T00:07:48;6.57;;;5.20;;
48241;SDS011;34041;51.812;4.622;2023-03-01T00:11:08;6.93;;;4.93;;
48241;SDS011;34041;51.812;4.622;2023-03-01T00:14:09;6.30;;;4.80;;
48241;SDS011;34041;51.812;4.622;2023-03-01T00:17:09;6.47;;;5.50;;
48241;SDS011;34041;51.812;4.622;2023-03-01T00:20:10;5.72;;;5.13;;
48241;SDS011;34041;51.812;4.622;2023-03-01T00:23:10;6.13;;;5.45;;
48241;SDS011;34041;51.812;4.622;2023-03-01T00:26:12;5.55;;;4.95;;
48241;SDS011;34041;51.812;4.622;2023-03-01T00:29:13;5.55;;;4.90;;
48241;SDS011;34041;51.812;4.622;2023-03-01T00:32:13;5.15;;;4.35;;
48241;SDS011;34041;51.812;4.622;2023-03-01T00:35:13;7.03;;;5.27;;
48241;SDS011;34041;51.812;4.622;2023-03-01T00:38:13;5.78;;;5.18;;
48241;SDS011;34041;51.812;4.622;2023-03-01T00:41:14;5.87;;;5.27;;
48241;SDS011;34041;51.812;4.622;2023-03-01T00:44:15;5.70;;;5.10;;
48241;SDS011;34041;51.812;4.622;2023-03-01T00:47:15;7.77;;;5.80;;
48241;SDS011;34041;51.812;4.622;2023-03-01T00:50:15;6.10;;;5.47;;
48241;SDS011;34041;51.812;4.622;2023-03-01T00:53:16;6.03;;;5.43;;
48241;SDS011;34041;51.812;4.622;2023-03-01T00:56:16;6.80;;;5.40;;
48241;SDS011;34041;51.812;4.622;2023-03-01T00:59:16;8.63;;;5.88;;
48241;SDS011;34041;51.812;4.622;2023-03-01T01:02:16;5.33;;;4.77;;
48241;SDS011;34041;51.812;4.622;2023-03-01T01:05:17;5.37;;;4.87;;
48241;SDS011;34041;51.812;4.622;2023-03-01T01:08:20;6.57;;;5.75;;
48241;SDS011;34041;51.812;4.622;2023-03-01T01:11:21;5.82;;;5.10;;
48241;SDS011;34041;51.812;4.622;2023-03-01T01:14:22;8.20;;;5.90;;
48241;SDS011;34041;51.812;4.622;2023-03-01T01:17:22;7.27;;;5.33;;
48241;SDS011;34041;51.812;4.622;2023-03-01T01:20:22;6.90;;;5.57;;
48241;SDS011;34041;51.812;4.622;2023-03-01T01:23:22;6.18;;;5.25;;
48241;SDS011;34041;51.812;4.622;2023-03-01T01:26:24;6.95;;;5.53;;
48241;SDS011;34041;51.812;4.622;2023-03-01T01:29:25;6.95;;;5.95;;
48241;SDS011;34041;51.812;4.622;2023-03-01T01:32:25;7.20;;;5.77;;
48241;SDS011;34041;51.812;4.622;2023-03-01T01:35:25;6.50;;;5.72;;
48241;SDS011;34041;51.812;4.622;2023-03-01T01:38:25;6.93;;;5.72;;
48241;SDS011;34041;51.812;4.622;2023-03-01T01:41:26;7.37;;;6.37;;
48241;SDS011;34041;51.812;4.622;2023-03-01T01:44:27;6.13;;;5.32;;
48241;SDS011;34041;51.812;4.622;2023-03-01T01:47:28;6.82;;;6.13;;
48241;SDS011;34041;51.812;4.622;2023-03-01T01:50:28;7.17;;;5.93;;
48241;SDS011;34041;51.812;4.622;2023-03-01T01:53:38;7.35;;;5.68;;
48241;SDS011;34041;51.812;4.622;2023-03-01T01:56:40;6.05;;;5.38;;
48241;SDS011;34041;51.812;4.622;2023-03-01T01:59:43;6.57;;;5.95;;
48241;SDS011;34041;51.812;4.622;2023-03-01T02:02:45;6.45;;;5.75;;
48241;SDS011;34041;51.812;4.622;2023-03-01T02:08:47;6.77;;;6.10;;
48241;SDS011;34041;51.812;4.622;2023-03-01T02:11:48;7.78;;;6.35;;
48241;SDS011;34041;51.812;4.622;2023-03-01T02:14:50;7.03;;;6.32;;
48241;SDS011;34041;51.812;4.622;2023-03-01T02:17:50;6.88;;;5.90;;
48241;SDS011;34041;51.812;4.622;2023-03-01T02:27:38;6.85;;;6.13;;
48241;SDS011;34041;51.812;4.622;2023-03-01T02:30:41;6.28;;;5.68;;
48241;SDS011;34041;51.812;4.622;2023-03-01T02:34:02;7.63;;;6.82;;
48241;SDS011;34041;51.812;4.622;2023-03-01T02:37:11;8.57;;;6.33;;
48241;SDS011;34041;51.812;4.622;2023-03-01T02:40:14;8.30;;;7.32;;
48241;SDS011;34041;51.812;4.622;2023-03-01T02:43:16;8.35;;;6.63;;
48241;SDS011;34041;51.812;4.622;2023-03-01T02:46:20;8.20;;;6.95;;
48241;SDS011;34041;51.812;4.622;2023-03-01T02:49:22;6.60;;;5.97;;
48241;SDS011;34041;51.812;4.622;2023-03-01T02:55:23;8.90;;;7.17;;
48241;SDS011;34041;51.812;4.622;2023-03-01T02:58:24;8.32;;;7.53;;
48241;SDS011;34041;51.812;4.622;2023-03-01T03:01:24;7.80;;;7.00;;
48241;SDS011;34041;51.812;4.622;2023-03-01T03:04:36;9.52;;;8.10;;
48241;SDS011;34041;51.812;4.622;2023-03-01T03:07:37;9.60;;;8.63;;
48241;SDS011;34041;51.812;4.622;2023-03-01T03:10:39;9.43;;;7.75;;
48241;SDS011;34041;51.812;4.622;2023-03-01T03:13:40;9.65;;;8.75;;
48241;SDS011;34041;51.812;4.622;2023-03-01T03:16:48;8.90;;;7.80;;
48241;SDS011;34041;51.812;4.622;2023-03-01T03:19:49;9.00;;;8.10;;
48241;SDS011;34041;51.812;4.622;2023-03-01T03:22:50;8.82;;;7.45;;
48241;SDS011;34041;51.812;4.622;2023-03-01T03:25:51;9.80;;;8.82;;
48241;SDS011;34041;51.812;4.622;2023-03-01T03:28:51;8.40;;;7.50;;
48241;SDS011;34041;51.812;4.622;2023-03-01T03:31:51;9.05;;;8.15;;
48241;SDS011;34041;51.812;4.622;2023-03-01T03:34:51;10.77;;;8.87;;
48241;SDS011;34041;51.812;4.622;2023-03-01T03:37:52;8.97;;;7.50;;
48241;SDS011;34041;51.812;4.622;2023-03-01T03:41:06;9.23;;;8.40;;
48241;SDS011;34041;51.812;4.622;2023-03-01T03:44:07;8.30;;;7.30;;
48241;SDS011;34041;51.812;4.622;2023-03-01T03:47:07;10.07;;;9.07;;
48241;SDS011;34041;51.812;4.622;2023-03-01T03:50:08;9.85;;;8.85;;
48241;SDS011;34041;51.812;4.622;2023-03-01T03:53:10;9.90;;;8.88;;
48241;SDS011;34041;51.812;4.622;2023-03-01T03:56:11;8.63;;;7.75;;
48241;SDS011;34041;51.812;4.622;2023-03-01T03:59:11;8.85;;;7.57;;
48241;SDS011;34041;51.812;4.622;2023-03-01T04:02:11;8.53;;;7.60;;
48241;SDS011;34041;51.812;4.622;2023-03-01T04:05:13;9.55;;;8.13;;
48241;SDS011;34041;51.812;4.622;2023-03-01T04:08:14;8.57;;;7.75;;
48241;SDS011;34041;51.812;4.622;2023-03-01T04:11:14;8.85;;;7.97;;
48241;SDS011;34041;51.812;4.622;2023-03-01T04:14:26;8.27;;;7.47;;
48241;SDS011;34041;51.812;4.622;2023-03-01T04:17:27;9.00;;;8.00;;
48241;SDS011;34041;51.812;4.622;2023-03-01T04:20:28;9.68;;;8.65;;
48241;SDS011;34041;51.812;4.622;2023-03-01T04:23:29;9.73;;;8.38;;
48241;SDS011;34041;51.812;4.622;2023-03-01T04:26:29;8.27;;;7.47;;
48241;SDS011;34041;51.812;4.622;2023-03-01T04:29:29;9.57;;;8.45;;
48241;SDS011;34041;51.812;4.622;2023-03-01T04:32:29;8.65;;;7.82;;
48241;SDS011;34041;51.812;4.622;2023-03-01T04:35:30;8.83;;;7.93;;
48241;SDS011;34041;51.812;4.622;2023-03-01T04:38:30;8.13;;;7.28;;
48241;SDS011;34041;51.812;4.622;2023-03-01T04:41:31;8.03;;;7.30;;
48241;SDS011;34041;51.812;4.622;2023-03-01T04:44:31;8.48;;;7.68;;
48241;SDS011;34041;51.812;4.622;2023-03-01T04:47:31;9.07;;;8.00;;
48241;SDS011;34041;51.812;4.622;2023-03-01T04:50:31;9.13;;;7.50;;
48241;SDS011;34041;51.812;4.622;2023-03-01T04:53:32;8.73;;;7.85;;
48241;SDS011;34041;51.812;4.622;2023-03-01T04:56:32;7.80;;;7.00;;
48241;SDS011;34041;51.812;4.622;2023-03-01T04:59:33;9.27;;;7.57;;
48241;SDS011;34041;51.812;4.622;2023-03-01T05:02:33;8.23;;;7.43;;
48241;SDS011;34041;51.812;4.622;2023-03-01T05:05:34;7.67;;;6.97;;
48241;SDS011;34041;51.812;4.622;2023-03-01T05:08:35;8.68;;;7.20;;
48241;SDS011;34041;51.812;4.622;2023-03-01T05:11:37;9.07;;;8.18;;
48241;SDS011;34041;51.812;4.622;2023-03-01T05:14:37;8.20;;;7.40;;
48241;SDS011;34041;51.812;4.622;2023-03-01T05:17:38;9.18;;;7.32;;
48241;SDS011;34041;51.812;4.622;2023-03-01T05:20:38;13.83;;;8.43;;
48241;SDS011;34041;51.812;4.622;2023-03-01T05:23:38;16.95;;;8.63;;
48241;SDS011;34041;51.812;4.622;2023-03-01T05:26:39;14.43;;;7.88;;
48241;SDS011;34041;51.812;4.622;2023-03-01T05:29:40;9.10;;;8.05;;
48241;SDS011;34041;51.812;4.622;2023-03-01T05:32:44;22.83;;;8.95;;
48241;SDS011;34041;51.812;4.622;2023-03-01T05:35:45;12.48;;;9.65;;
48241;SDS011;34041;51.812;4.622;2023-03-01T05:38:46;14.50;;;9.45;;
48241;SDS011;34041;51.812;4.622;2023-03-01T05:41:46;13.15;;;8.75;;
48241;SDS011;34041;51.812;4.622;2023-03-01T05:44:46;16.08;;;9.73;;
48241;SDS011;34041;51.812;4.622;2023-03-01T05:47:47;11.30;;;8.90;;
48241;SDS011;34041;51.812;4.622;2023-03-01T05:50:48;14.18;;;8.63;;
48241;SDS011;34041;51.812;4.622;2023-03-01T05:53:48;12.90;;;8.30;;
48241;SDS011;34041;51.812;4.622;2023-03-01T05:56:49;10.25;;;8.57;;
48241;SDS011;34041;51.812;4.622;2023-03-01T05:59:49;12.93;;;10.02;;
48241;SDS011;34041;51.812;4.622;2023-03-01T06:02:49;15.10;;;9.23;;
48241;SDS011;34041;51.812;4.622;2023-03-01T06:05:55;10.93;;;9.23;;
48241;SDS011;34041;51.812;4.622;2023-03-01T06:08:55;13.48;;;10.30;;
48241;SDS011;34041;51.812;4.622;2023-03-01T06:11:55;11.30;;;8.80;;
48241;SDS011;34041;51.812;4.622;2023-03-01T06:14:55;10.80;;;9.10;;
48241;SDS011;34041;51.812;4.622;2023-03-01T06:17:56;10.32;;;8.80;;
48241;SDS011;34041;51.812;4.622;2023-03-01T06:20:57;11.65;;;8.27;;
48241;SDS011;34041;51.812;4.622;2023-03-01T06:23:57;10.73;;;9.35;;
48241;SDS011;34041;51.812;4.622;2023-03-01T06:26:57;10.20;;;9.10;;
48241;SDS011;34041;51.812;4.622;2023-03-01T06:29:57;9.77;;;8.63;;
48241;SDS011;34041;51.812;4.622;2023-03-01T06:32:58;10.57;;;8.55;;
48241;SDS011;34041;51.812;4.622;2023-03-01T06:36:01;12.95;;;9.82;;
48241;SDS011;34041;51.812;4.622;2023-03-01T06:39:01;10.10;;;8.90;;
48241;SDS011;34041;51.812;4.622;2023-03-01T06:42:01;10.37;;;9.40;;
48241;SDS011;34041;51.812;4.622;2023-03-01T06:45:02;9.50;;;8.60;;
48241;SDS011;34041;51.812;4.622;2023-03-01T06:48:05;10.68;;;9.23;;
48241;SDS011;34041;51.812;4.622;2023-03-01T06:51:06;11.40;;;9.53;;
48241;SDS011;34041;51.812;4.622;2023-03-01T06:54:06;10.85;;;8.38;;
48241;SDS011;34041;51.812;4.622;2023-03-01T06:57:07;9.95;;;8.95;;
48241;SDS011;34041;51.812;4.622;2023-03-01T07:00:07;10.88;;;9.23;;
48241;SDS011;34041;51.812;4.622;2023-03-01T07:03:08;8.75;;;7.93;;
48241;SDS011;34041;51.812;4.622;2023-03-01T07:06:08;9.32;;;8.43;;
48241;SDS011;34041;51.812;4.622;2023-03-01T07:09:08;10.00;;;8.70;;
48241;SDS011;34041;51.812;4.622;2023-03-01T07:12:08;11.52;;;9.23;;
48241;SDS011;34041;51.812;4.622;2023-03-01T07:15:09;11.13;;;8.80;;
48241;SDS011;34041;51.812;4.622;2023-03-01T07:18:09;10.30;;;9.30;;
48241;SDS011;34041;51.812;4.622;2023-03-01T07:21:11;10.82;;;8.35;;
48241;SDS011;34041;51.812;4.622;2023-03-01T07:24:11;10.02;;;8.38;;
48241;SDS011;34041;51.812;4.622;2023-03-01T07:27:12;10.13;;;9.07;;
48241;SDS011;34041;51.812;4.622;2023-03-01T07:30:12;11.07;;;9.27;;
48241;SDS011;34041;51.812;4.622;2023-03-01T07:33:12;10.20;;;9.18;;
48241;SDS011;34041;51.812;4.622;2023-03-01T07:36:12;9.43;;;8.20;;
48241;SDS011;34041;51.812;4.622;2023-03-01T07:39:13;10.40;;;9.40;;
48241;SDS011;34041;51.812;4.622;2023-03-01T07:42:13;11.93;;;9.45;;
48241;SDS011;34041;51.812;4.622;2023-03-01T07:45:13;9.63;;;8.63;;
48241;SDS011;34041;51.812;4.622;2023-03-01T07:48:13;9.07;;;8.07;;
48241;SDS011;34041;51.812;4.622;2023-03-01T07:51:14;9.57;;;8.60;;
48241;SDS011;34041;51.812;4.622;2023-03-01T07:54:14;10.25;;;9.02;;
48241;SDS011;34041;51.812;4.622;2023-03-01T07:57:14;9.97;;;8.60;;
48241;SDS011;34041;51.812;4.622;2023-03-01T08:00:15;9.75;;;8.85;;
48241;SDS011;34041;51.812;4.622;2023-03-01T08:03:15;9.75;;;8.75;;
48241;SDS011;34041;51.812;4.622;2023-03-01T08:06:16;9.73;;;8.73;;
48241;SDS011;34041;51.812;4.622;2023-03-01T08:09:16;9.30;;;8.35;;
48241;SDS011;34041;51.812;4.622;2023-03-01T08:12:16;8.63;;;7.73;;
48241;SDS011;34041;51.812;4.622;2023-03-01T08:15:17;9.68;;;8.77;;
48241;SDS011;34041;51.812;4.622;2023-03-01T08:18:19;10.63;;;8.55;;
48241;SDS011;34041;51.812;4.622;2023-03-01T08:21:19;9.45;;;8.40;;
48241;SDS011;34041;51.812;4.622;2023-03-01T08:24:20;9.38;;;8.27;;
48241;SDS011;34041;51.812;4.622;2023-03-01T08:27:20;8.93;;;8.02;;
48241;SDS011;34041;51.812;4.622;2023-03-01T08:30:20;8.97;;;7.27;;
48241;SDS011;34041;51.812;4.622;2023-03-01T08:33:21;8.38;;;7.18;;
48241;SDS011;34041;51.812;4.622;2023-03-01T08:36:22;8.33;;;7.50;;
48241;SDS011;34041;51.812;4.622;2023-03-01T08:39:22;8.88;;;6.95;;
48241;SDS011;34041;51.812;4.622;2023-03-01T08:42:23;7.28;;;6.57;;
48241;SDS011;34041;51.812;4.622;2023-03-01T08:45:23;8.20;;;7.40;;
48241;SDS011;34041;51.812;4.622;2023-03-01T08:48:23;7.13;;;6.43;;
48241;SDS011;34041;51.812;4.622;2023-03-01T08:51:23;8.57;;;7.32;;
48241;SDS011;34041;51.812;4.622;2023-03-01T08:54:24;7.90;;;6.70;;
48241;SDS011;34041;51.812;4.622;2023-03-01T08:57:24;7.60;;;6.90;;
48241;SDS011;34041;51.812;4.622;2023-03-01T09:00:25;7.90;;;6.75;;
48241;SDS011;34041;51.812;4.622;2023-03-01T09:03:25;7.35;;;6.38;;
48241;SDS011;34041;51.812;4.622;2023-03-01T09:06:26;7.82;;;6.07;;
48241;SDS011;34041;51.812;4.622;2023-03-01T09:09:26;7.00;;;5.85;;
48241;SDS011;34041;51.812;4.622;2023-03-01T09:12:26;7.78;;;6.97;;
48241;SDS011;34041;51.812;4.622;2023-03-01T09:15:26;7.35;;;6.53;;
48241;SDS011;34041;51.812;4.622;2023-03-01T09:18:27;8.00;;;5.80;;
48241;SDS011;34041;51.812;4.622;2023-03-01T09:21:27;7.03;;;6.32;;
48241;SDS011;34041;51.812;4.622;2023-03-01T09:24:27;7.43;;;6.13;;
48241;SDS011;34041;51.812;4.622;2023-03-01T09:27:28;5.90;;;5.30;;
48241;SDS011;34041;51.812;4.622;2023-03-01T09:30:28;6.75;;;5.60;;
48241;SDS011;34041;51.812;4.622;2023-03-01T09:33:29;8.23;;;5.65;;
48241;SDS011;34041;51.812;4.622;2023-03-01T09:36:29;6.85;;;6.07;;
48241;SDS011;34041;51.812;4.622;2023-03-01T09:39:30;6.07;;;5.35;;
48241;SDS011;34041;51.812;4.622;2023-03-01T09:42:32;6.70;;;5.40;;
48241;SDS011;34041;51.812;4.622;2023-03-01T09:45:34;7.85;;;5.78;;
48241;SDS011;34041;51.812;4.622;2023-03-01T09:48:37;6.40;;;4.93;;
48241;SDS011;34041;51.812;4.622;2023-03-01T09:51:38;6.70;;;4.95;;
48241;SDS011;34041;51.812;4.622;2023-03-01T09:54:38;5.77;;;5.10;;
48241;SDS011;34041;51.812;4.622;2023-03-01T10:00:41;5.77;;;4.60;;
48241;SDS011;34041;51.812;4.622;2023-03-01T10:03:48;5.15;;;4.60;;
48241;SDS011;34041;51.812;4.622;2023-03-01T10:10:06;5.07;;;4.57;;
48241;SDS011;34041;51.812;4.622;2023-03-01T10:13:13;6.65;;;5.07;;
48241;SDS011;34041;51.812;4.622;2023-03-01T10:16:16;5.45;;;4.57;;
48241;SDS011;34041;51.812;4.622;2023-03-01T10:19:20;6.95;;;4.82;;
48241;SDS011;34041;51.812;4.622;2023-03-01T10:22:27;5.07;;;4.38;;
48241;SDS011;34041;51.812;4.622;2023-03-01T10:28:37;7.07;;;4.47;;
48241;SDS011;34041;51.812;4.622;2023-03-01T10:31:42;6.05;;;4.57;;
48241;SDS011;34041;51.812;4.622;2023-03-01T10:34:43;4.47;;;3.88;;
48241;SDS011;34041;51.812;4.622;2023-03-01T10:38:25;4.53;;;3.80;;
48241;SDS011;34041;51.812;4.622;2023-03-01T10:41:06;4.70;;;3.97;;
48241;SDS011;34041;51.812;4.622;2023-03-01T10:44:09;5.75;;;4.25;;
48241;SDS011;34041;51.812;4.622;2023-03-01T10:47:27;4.15;;;3.45;;
48241;SDS011;34041;51.812;4.622;2023-03-01T10:50:27;4.65;;;3.65;;
48241;SDS011;34041;51.812;4.622;2023-03-01T10:53:40;5.40;;;3.88;;
48241;SDS011;34041;51.812;4.622;2023-03-01T10:56:51;4.28;;;3.60;;
48241;SDS011;34041;51.812;4.622;2023-03-01T11:00:00;4.70;;;4.20;;
48241;SDS011;34041;51.812;4.622;2023-03-01T11:03:03;5.25;;;4.07;;
48241;SDS011;34041;51.812;4.622;2023-03-01T11:06:05;5.05;;;3.63;;
48241;SDS011;34041;51.812;4.622;2023-03-01T11:12:16;4.20;;;3.45;;
48241;SDS011;34041;51.812;4.622;2023-03-01T11:15:24;5.20;;;3.67;;
48241;SDS011;34041;51.812;4.622;2023-03-01T11:18:25;4.38;;;3.42;;
48241;SDS011;34041;51.812;4.622;2023-03-01T11:21:26;4.57;;;3.63;;
48241;SDS011;34041;51.812;4.622;2023-03-01T11:24:30;3.63;;;3.03;;
48241;SDS011;34041;51.812;4.622;2023-03-01T11:27:32;4.78;;;3.88;;
48241;SDS011;34041;51.812;4.622;2023-03-01T11:30:39;4.10;;;2.67;;
48241;SDS011;34041;51.812;4.622;2023-03-01T11:37:22;3.83;;;3.05;;
48241;SDS011;34041;51.812;4.622;2023-03-01T11:40:26;3.55;;;2.60;;
48241;SDS011;34041;51.812;4.622;2023-03-01T12:08:02;5.10;;;2.85;;
48241;SDS011;34041;51.812;4.622;2023-03-01T17:12:51;5.75;;;3.50;;
48241;SDS011;34041;51.812;4.622;2023-03-01T17:15:52;5.03;;;3.55;;
48241;SDS011;34041;51.812;4.622;2023-03-01T17:18:52;6.37;;;3.90;;
48241;SDS011;34041;51.812;4.622;2023-03-01T17:21:52;5.10;;;4.05;;
48241;SDS011;34041;51.812;4.622;2023-03-01T17:24:52;4.22;;;3.67;;
48241;SDS011;34041;51.812;4.622;2023-03-01T17:27:53;5.10;;;3.85;;
48241;SDS011;34041;51.812;4.622;2023-03-01T17:30:53;5.28;;;3.88;;
48241;SDS011;34041;51.812;4.622;2023-03-01T17:33:54;6.15;;;4.07;;
48241;SDS011;34041;51.812;4.622;2023-03-01T17:36:54;5.63;;;3.83;;
48241;SDS011;34041;51.812;4.622;2023-03-01T17:39:55;4.70;;;3.25;;
48241;SDS011;34041;51.812;4.622;2023-03-01T17:42:55;4.95;;;4.10;;
48241;SDS011;34041;51.812;4.622;2023-03-01T17:45:56;6.13;;;3.50;;
48241;SDS011;34041;51.812;4.622;2023-03-01T17:48:56;5.40;;;3.78;;
48241;SDS011;34041;51.812;4.622;2023-03-01T17:51:56;7.37;;;4.03;;
48241;SDS011;34041;51.812;4.622;2023-03-01T17:54:57;4.47;;;3.72;;
48241;SDS011;34041;51.812;4.622;2023-03-01T17:57:57;8.68;;;4.45;;
48241;SDS011;34041;51.812;4.622;2023-03-01T18:01:11;6.73;;;5.03;;
48241;SDS011;34041;51.812;4.622;2023-03-01T18:04:12;5.65;;;4.32;;
48241;SDS011;34041;51.812;4.622;2023-03-01T18:07:13;5.75;;;3.42;;
48241;SDS011;34041;51.812;4.622;2023-03-01T18:10:13;4.95;;;3.97;;
48241;SDS011;34041;51.812;4.622;2023-03-01T18:13:13;5.27;;;3.43;;
48241;SDS011;34041;51.812;4.622;2023-03-01T18:16:14;6.25;;;4.20;;
48241;SDS011;34041;51.812;4.622;2023-03-01T18:19:15;5.28;;;4.13;;
48241;SDS011;34041;51.812;4.622;2023-03-01T18:22:15;5.22;;;4.72;;
48241;SDS011;34041;51.812;4.622;2023-03-01T18:25:15;6.65;;;4.35;;
48241;SDS011;34041;51.812;4.622;2023-03-01T18:28:16;5.03;;;3.60;;
48241;SDS011;34041;51.812;4.622;2023-03-01T18:31:16;6.50;;;5.40;;
48241;SDS011;34041;51.812;4.622;2023-03-01T18:34:17;5.85;;;4.15;;
48241;SDS011;34041;51.812;4.622;2023-03-01T18:37:18;5.53;;;3.83;;
48241;SDS011;34041;51.812;4.622;2023-03-01T18:40:18;5.25;;;4.35;;
48241;SDS011;34041;51.812;4.622;2023-03-01T18:43:18;5.35;;;3.75;;
48241;SDS011;34041;51.812;4.622;2023-03-01T18:46:19;4.97;;;3.95;;
48241;SDS011;34041;51.812;4.622;2023-03-01T18:49:19;6.13;;;5.05;;
48241;SDS011;34041;51.812;4.622;2023-03-01T18:52:19;5.22;;;3.97;;
48241;SDS011;34041;51.812;4.622;2023-03-01T18:55:20;6.13;;;3.70;;
48241;SDS011;34041;51.812;4.622;2023-03-01T18:58:20;5.13;;;4.50;;
48241;SDS011;34041;51.812;4.622;2023-03-01T19:01:21;6.33;;;4.50;;
48241;SDS011;34041;51.812;4.622;2023-03-01T19:04:22;5.68;;;4.10;;
48241;SDS011;34041;51.812;4.622;2023-03-01T19:07:22;6.88;;;5.35;;
48241;SDS011;34041;51.812;4.622;2023-03-01T19:10:24;7.15;;;4.43;;
48241;SDS011;34041;51.812;4.622;2023-03-01T19:13:24;8.27;;;4.90;;
48241;SDS011;34041;51.812;4.622;2023-03-01T19:16:25;6.57;;;4.15;;
48241;SDS011;34041;51.812;4.622;2023-03-01T19:19:29;7.05;;;4.65;;
48241;SDS011;34041;51.812;4.622;2023-03-01T19:22:29;5.63;;;4.38;;
48241;SDS011;34041;51.812;4.622;2023-03-01T19:25:30;7.97;;;4.75;;
48241;SDS011;34041;51.812;4.622;2023-03-01T19:28:30;9.00;;;4.80;;
48241;SDS011;34041;51.812;4.622;2023-03-01T19:31:30;8.17;;;5.03;;
48241;SDS011;34041;51.812;4.622;2023-03-01T19:34:30;6.00;;;4.32;;
48241;SDS011;34041;51.812;4.622;2023-03-01T19:37:34;7.18;;;4.75;;
48241;SDS011;34041;51.812;4.622;2023-03-01T19:40:35;7.13;;;5.07;;
48241;SDS011;34041;51.812;4.622;2023-03-01T19:43:35;6.47;;;5.00;;
48241;SDS011;34041;51.812;4.622;2023-03-01T19:46:35;6.28;;;4.50;;
48241;SDS011;34041;51.812;4.622;2023-03-01T19:49:36;5.95;;;4.45;;
48241;SDS011;34041;51.812;4.622;2023-03-01T19:52:37;5.28;;;4.25;;
48241;SDS011;34041;51.812;4.622;2023-03-01T19:55:37;6.60;;;4.63;;
48241;SDS011;34041;51.812;4.622;2023-03-01T19:58:38;7.97;;;4.68;;
48241;SDS011;34041;51.812;4.622;2023-03-01T20:01:39;8.45;;;5.75;;
48241;SDS011;34041;51.812;4.622;2023-03-01T20:04:42;6.25;;;4.72;;
48241;SDS011;34041;51.812;4.622;2023-03-01T20:07:42;7.10;;;5.73;;
48241;SDS011;34041;51.812;4.622;2023-03-01T20:10:43;6.70;;;4.93;;
48241;SDS011;34041;51.812;4.622;2023-03-01T20:13:43;6.72;;;4.85;;
48241;SDS011;34041;51.812;4.622;2023-03-01T20:16:43;7.82;;;5.20;;
48241;SDS011;34041;51.812;4.622;2023-03-01T20:19:43;7.63;;;5.10;;
48241;SDS011;34041;51.812;4.622;2023-03-01T20:22:44;7.43;;;5.68;;
48241;SDS011;34041;51.812;4.622;2023-03-01T20:25:44;5.73;;;4.83;;
48241;SDS011;34041;51.812;4.622;2023-03-01T20:28:46;7.10;;;5.00;;
48241;SDS011;34041;51.812;4.622;2023-03-01T20:31:46;7.13;;;5.30;;
48241;SDS011;34041;51.812;4.622;2023-03-01T20:34:46;6.90;;;5.53;;
48241;SDS011;34041;51.812;4.622;2023-03-01T20:37:47;6.15;;;5.03;;
48241;SDS011;34041;51.812;4.622;2023-03-01T20:40:49;6.38;;;4.68;;
48241;SDS011;34041;51.812;4.622;2023-03-01T20:43:50;5.90;;;4.60;;
48241;SDS011;34041;51.812;4.622;2023-03-01T20:46:55;6.97;;;4.60;;
48241;SDS011;34041;51.812;4.622;2023-03-01T20:49:55;6.88;;;5.05;;
48241;SDS011;34041;51.812;4.622;2023-03-01T20:52:59;5.57;;;4.47;;
48241;SDS011;34041;51.812;4.622;2023-03-01T20:56:03;9.07;;;5.53;;
48241;SDS011;34041;51.812;4.622;2023-03-01T20:59:04;8.40;;;5.38;;
48241;SDS011;34041;51.812;4.622;2023-03-01T21:02:04;7.38;;;4.90;;
48241;SDS011;34041;51.812;4.622;2023-03-01T21:05:05;6.53;;;4.77;;
48241;SDS011;34041;51.812;4.622;2023-03-01T21:08:05;7.18;;;4.63;;
48241;SDS011;34041;51.812;4.622;2023-03-01T21:11:05;7.30;;;5.37;;
48241;SDS011;34041;51.812;4.622;2023-03-01T21:14:06;5.68;;;4.82;;
48241;SDS011;34041;51.812;4.622;2023-03-01T21:17:06;6.53;;;4.95;;
48241;SDS011;34041;51.812;4.622;2023-03-01T21:20:07;6.97;;;4.95;;
48241;SDS011;34041;51.812;4.622;2023-03-01T21:23:07;6.40;;;5.28;;
48241;SDS011;34041;51.812;4.622;2023-03-01T21:29:08;6.45;;;4.50;;
48241;SDS011;34041;51.812;4.622;2023-03-01T21:32:08;6.97;;;5.47;;
48241;SDS011;34041;51.812;4.622;2023-03-01T21:35:09;7.90;;;4.90;;
48241;SDS011;34041;51.812;4.622;2023-03-01T21:38:09;7.33;;;5.23;;
48241;SDS011;34041;51.812;4.622;2023-03-01T21:41:10;7.47;;;5.00;;
48241;SDS011;34041;51.812;4.622;2023-03-01T21:44:10;7.47;;;5.47;;
48241;SDS011;34041;51.812;4.622;2023-03-01T21:47:11;6.30;;;5.30;;
48241;SDS011;34041;51.812;4.622;2023-03-01T21:50:11;5.97;;;4.50;;
48241;SDS011;34041;51.812;4.622;2023-03-01T21:53:12;8.30;;;5.80;;
48241;SDS011;34041;51.812;4.622;2023-03-01T21:56:16;5.40;;;4.43;;
48241;SDS011;34041;51.812;4.622;2023-03-01T21:59:18;6.53;;;4.53;;
48241;SDS011;34041;51.812;4.622;2023-03-01T22:02:19;7.40;;;5.65;;
48241;SDS011;34041;51.812;4.622;2023-03-01T22:05:19;7.60;;;5.03;;
48241;SDS011;34041;51.812;4.622;2023-03-01T22:08:19;6.27;;;5.03;;
48241;SDS011;34041;51.812;4.622;2023-03-01T22:11:20;6.65;;;5.60;;
48241;SDS011;34041;51.812;4.622;2023-03-01T22:14:20;5.85;;;4.72;;
48241;SDS011;34041;51.812;4.622;2023-03-01T22:17:21;6.53;;;5.18;;
48241;SDS011;34041;51.812;4.622;2023-03-01T22:20:21;6.40;;;4.73;;
48241;SDS011;34041;51.812;4.622;2023-03-01T22:23:21;6.28;;;4.60;;
48241;SDS011;34041;51.812;4.622;2023-03-01T22:29:23;7.40;;;5.22;;
48241;SDS011;34041;51.812;4.622;2023-03-01T22:32:23;6.32;;;4.60;;
48241;SDS011;34041;51.812;4.622;2023-03-01T22:35:23;7.90;;;5.40;;
48241;SDS011;34041;51.812;4.622;2023-03-01T22:38:24;6.70;;;5.30;;
48241;SDS011;34041;51.812;4.622;2023-03-01T22:41:34;6.50;;;4.97;;
48241;SDS011;34041;51.812;4.622;2023-03-01T22:44:34;6.82;;;4.93;;
48241;SDS011;34041;51.812;4.622;2023-03-01T22:47:35;9.40;;;6.35;;
48241;SDS011;34041;51.812;4.622;2023-03-01T22:50:41;7.55;;;5.32;;
48241;SDS011;34041;51.812;4.622;2023-03-01T22:53:42;7.32;;;5.55;;
48241;SDS011;34041;51.812;4.622;2023-03-01T22:56:42;6.70;;;5.45;;
48241;SDS011;34041;51.812;4.622;2023-03-01T22:59:42;8.43;;;4.97;;
48241;SDS011;34041;51.812;4.622;2023-03-01T23:02:42;6.67;;;5.00;;
48241;SDS011;34041;51.812;4.622;2023-03-01T23:05:43;7.83;;;5.27;;
48241;SDS011;34041;51.812;4.622;2023-03-01T23:08:43;6.38;;;4.80;;
48241;SDS011;34041;51.812;4.622;2023-03-01T23:11:43;8.82;;;5.85;;
48241;SDS011;34041;51.812;4.622;2023-03-01T23:14:44;7.28;;;5.88;;
48241;SDS011;34041;51.812;4.622;2023-03-01T23:17:44;7.17;;;5.73;;
48241;SDS011;34041;51.812;4.622;2023-03-01T23:20:44;8.27;;;5.50;;
48241;SDS011;34041;51.812;4.622;2023-03-01T23:23:45;7.90;;;6.00;;
48241;SDS011;34041;51.812;4.622;2023-03-01T23:26:46;8.43;;;5.13;;
48241;SDS011;34041;51.812;4.622;2023-03-01T23:29:52;6.43;;;5.05;;
48241;SDS011;34041;51.812;4.622;2023-03-01T23:32:52;8.17;;;5.70;;
48241;SDS011;34041;51.812;4.622;2023-03-01T23:35:52;6.85;;;5.85;;
48241;SDS011;34041;51.812;4.622;2023-03-01T23:38:56;6.68;;;5.50;;
48241;SDS011;34041;51.812;4.622;2023-03-01T23:41:57;7.93;;;5.47;;
48241;SDS011;34041;51.812;4.622;2023-03-01T23:44:57;6.53;;;5.18;;
48241;SDS011;34041;51.812;4.622;2023-03-01T23:47:58;7.73;;;5.13;;
48241;SDS011;34041;51.812;4.622;2023-03-01T23:51:02;8.13;;;5.72;;
48241;SDS011;34041;51.812;4.622;2023-03-01T23:54:02;7.90;;;5.63;;
48241;SDS011;34041;51.812;4.622;2023-03-01T23:57:04;7.78;;;5.90;;
